sensor_id;sensor_type;location;lat;lon;timestamp;temperature;humidity
68011;DHT22;54794;48.348;7.878;2022-08-18T00:01:34;22.20;61.30
68011;DHT22;54794;48.348;7.878;2022-08-18T00:04:01;22.10;61.20
68011;DHT22;54794;48.348;7.878;2022-08-18T00:06:49;22.10;61.20
68011;DHT22;54794;48.348;7.878;2022-08-18T00:09:16;22.10;61.10
68011;DHT22;54794;48.348;7.878;2022-08-18T00:11:43;22.10;61.60
68011;DHT22;54794;48.348;7.878;2022-08-18T00:14:14;22.00;61.60
68011;DHT22;54794;48.348;7.878;2022-08-18T00:16:50;22.10;61.50
68011;DHT22;54794;48.348;7.878;2022-08-18T00:19:19;22.00;61.40
68011;DHT22;54794;48.348;7.878;2022-08-18T00:22:07;22.00;61.70
68011;DHT22;54794;48.348;7.878;2022-08-18T00:24:40;22.00;61.60
68011;DHT22;54794;48.348;7.878;2022-08-18T00:27:18;21.90;61.80
68011;DHT22;54794;48.348;7.878;2022-08-18T00:29:50;21.90;62.10
68011;DHT22;54794;48.348;7.878;2022-08-18T00:32:33;21.90;62.20
68011;DHT22;54794;48.348;7.878;2022-08-18T00:35:08;21.90;63.40
68011;DHT22;54794;48.348;7.878;2022-08-18T00:37:41;21.90;63.10
68011;DHT22;54794;48.348;7.878;2022-08-18T00:40:13;21.90;62.50
68011;DHT22;54794;48.348;7.878;2022-08-18T00:42:47;21.90;62.80
68011;DHT22;54794;48.348;7.878;2022-08-18T00:45:19;21.90;63.00
68011;DHT22;54794;48.348;7.878;2022-08-18T00:47:52;21.90;63.20
68011;DHT22;54794;48.348;7.878;2022-08-18T00:50:23;21.90;63.10
68011;DHT22;54794;48.348;7.878;2022-08-18T00:53:08;21.90;63.50
68011;DHT22;54794;48.348;7.878;2022-08-18T00:55:41;21.80;63.00
68011;DHT22;54794;48.348;7.878;2022-08-18T00:58:35;21.80;63.20
68011;DHT22;54794;48.348;7.878;2022-08-18T01:01:08;21.80;63.80
68011;DHT22;54794;48.348;7.878;2022-08-18T01:03:38;21.80;63.50
68011;DHT22;54794;48.348;7.878;2022-08-18T01:09:00;21.80;64.20
68011;DHT22;54794;48.348;7.878;2022-08-18T01:11:28;21.70;63.40
68011;DHT22;54794;48.348;7.878;2022-08-18T01:13:57;21.70;63.40
68011;DHT22;54794;48.348;7.878;2022-08-18T01:16:24;21.70;63.60
68011;DHT22;54794;48.348;7.878;2022-08-18T01:19:24;21.70;63.70
68011;DHT22;54794;48.348;7.878;2022-08-18T01:22:37;21.70;63.70
68011;DHT22;54794;48.348;7.878;2022-08-18T01:25:19;21.60;64.50
68011;DHT22;54794;48.348;7.878;2022-08-18T01:28:06;21.60;63.80
68011;DHT22;54794;48.348;7.878;2022-08-18T01:30:45;21.60;63.90
68011;DHT22;54794;48.348;7.878;2022-08-18T01:33:16;21.60;64.80
68011;DHT22;54794;48.348;7.878;2022-08-18T01:35:46;21.60;64.10
68011;DHT22;54794;48.348;7.878;2022-08-18T01:38:16;21.50;64.30
68011;DHT22;54794;48.348;7.878;2022-08-18T01:40:45;21.60;64.50
68011;DHT22;54794;48.348;7.878;2022-08-18T01:43:34;21.60;64.60
68011;DHT22;54794;48.348;7.878;2022-08-18T01:46:02;21.60;64.50
68011;DHT22;54794;48.348;7.878;2022-08-18T01:48:31;21.60;64.60
68011;DHT22;54794;48.348;7.878;2022-08-18T01:51:02;21.60;64.60
68011;DHT22;54794;48.348;7.878;2022-08-18T01:53:30;21.50;64.70
68011;DHT22;54794;48.348;7.878;2022-08-18T01:55:57;21.50;64.60
68011;DHT22;54794;48.348;7.878;2022-08-18T01:58:24;21.50;64.60
68011;DHT22;54794;48.348;7.878;2022-08-18T02:00:58;21.50;64.60
68011;DHT22;54794;48.348;7.878;2022-08-18T02:03:32;21.50;64.90
68011;DHT22;54794;48.348;7.878;2022-08-18T02:06:04;21.50;65.00
68011;DHT22;54794;48.348;7.878;2022-08-18T02:08:35;21.50;65.00
68011;DHT22;54794;48.348;7.878;2022-08-18T02:11:07;21.50;65.00
68011;DHT22;54794;48.348;7.878;2022-08-18T02:13:34;21.50;65.30
68011;DHT22;54794;48.348;7.878;2022-08-18T02:16:02;21.50;65.20
68011;DHT22;54794;48.348;7.878;2022-08-18T02:18:32;21.50;65.00
68011;DHT22;54794;48.348;7.878;2022-08-18T02:21:16;21.50;64.80
68011;DHT22;54794;48.348;7.878;2022-08-18T02:23:47;21.50;65.00
68011;DHT22;54794;48.348;7.878;2022-08-18T02:26:19;21.50;65.30
68011;DHT22;54794;48.348;7.878;2022-08-18T02:28:46;21.50;65.20
68011;DHT22;54794;48.348;7.878;2022-08-18T02:31:16;21.50;65.40
68011;DHT22;54794;48.348;7.878;2022-08-18T02:33:46;21.50;65.60
68011;DHT22;54794;48.348;7.878;2022-08-18T02:36:18;21.50;65.60
68011;DHT22;54794;48.348;7.878;2022-08-18T02:38:46;21.40;65.60
68011;DHT22;54794;48.348;7.878;2022-08-18T02:41:25;21.40;65.60
68011;DHT22;54794;48.348;7.878;2022-08-18T02:43:56;21.40;65.70
68011;DHT22;54794;48.348;7.878;2022-08-18T02:46:23;21.40;65.60
68011;DHT22;54794;48.348;7.878;2022-08-18T02:48:58;21.40;65.80
68011;DHT22;54794;48.348;7.878;2022-08-18T02:51:26;21.40;65.90
68011;DHT22;54794;48.348;7.878;2022-08-18T02:53:54;21.40;65.90
68011;DHT22;54794;48.348;7.878;2022-08-18T02:56:26;21.40;65.90
68011;DHT22;54794;48.348;7.878;2022-08-18T02:59:08;21.40;66.00
68011;DHT22;54794;48.348;7.878;2022-08-18T03:01:40;21.40;66.00
68011;DHT22;54794;48.348;7.878;2022-08-18T03:04:12;21.40;66.10
68011;DHT22;54794;48.348;7.878;2022-08-18T03:06:42;21.40;66.10
68011;DHT22;54794;48.348;7.878;2022-08-18T03:09:12;21.50;66.30
68011;DHT22;54794;48.348;7.878;2022-08-18T03:11:41;21.50;66.30
68011;DHT22;54794;48.348;7.878;2022-08-18T03:14:09;21.50;66.30
68011;DHT22;54794;48.348;7.878;2022-08-18T03:16:42;21.50;66.80
68011;DHT22;54794;48.348;7.878;2022-08-18T03:19:23;21.50;66.70
68011;DHT22;54794;48.348;7.878;2022-08-18T03:21:52;21.40;66.30
68011;DHT22;54794;48.348;7.878;2022-08-18T03:24:24;21.40;66.40
68011;DHT22;54794;48.348;7.878;2022-08-18T03:26:54;21.50;66.60
68011;DHT22;54794;48.348;7.878;2022-08-18T03:29:24;21.40;66.60
68011;DHT22;54794;48.348;7.878;2022-08-18T03:32:02;21.40;67.10
68011;DHT22;54794;48.348;7.878;2022-08-18T03:34:30;21.50;66.70
68011;DHT22;54794;48.348;7.878;2022-08-18T03:36:58;21.40;66.70
68011;DHT22;54794;48.348;7.878;2022-08-18T03:39:26;21.40;66.70
68011;DHT22;54794;48.348;7.878;2022-08-18T03:41:54;21.50;66.90
68011;DHT22;54794;48.348;7.878;2022-08-18T03:44:33;21.50;67.00
68011;DHT22;54794;48.348;7.878;2022-08-18T03:47:08;21.50;67.40
68011;DHT22;54794;48.348;7.878;2022-08-18T03:49:36;21.50;67.20
68011;DHT22;54794;48.348;7.878;2022-08-18T03:52:07;21.50;66.80
68011;DHT22;54794;48.348;7.878;2022-08-18T03:54:35;21.50;67.20
68011;DHT22;54794;48.348;7.878;2022-08-18T03:57:07;21.50;67.10
68011;DHT22;54794;48.348;7.878;2022-08-18T03:59:35;21.50;67.30
68011;DHT22;54794;48.348;7.878;2022-08-18T04:02:03;21.50;67.10
68011;DHT22;54794;48.348;7.878;2022-08-18T04:04:31;21.50;67.10
68011;DHT22;54794;48.348;7.878;2022-08-18T04:07:01;21.50;67.00
68011;DHT22;54794;48.348;7.878;2022-08-18T04:09:33;21.50;67.00
68011;DHT22;54794;48.348;7.878;2022-08-18T04:12:07;21.60;67.00
68011;DHT22;54794;48.348;7.878;2022-08-18T04:14:44;21.60;67.40
68011;DHT22;54794;48.348;7.878;2022-08-18T04:17:18;21.60;67.20
68011;DHT22;54794;48.348;7.878;2022-08-18T04:19:54;21.60;67.10
68011;DHT22;54794;48.348;7.878;2022-08-18T04:22:22;21.60;67.20
68011;DHT22;54794;48.348;7.878;2022-08-18T04:24:51;21.60;67.20
68011;DHT22;54794;48.348;7.878;2022-08-18T04:27:20;21.60;67.10
68011;DHT22;54794;48.348;7.878;2022-08-18T04:29:48;21.60;67.20
68011;DHT22;54794;48.348;7.878;2022-08-18T04:32:16;21.60;67.30
68011;DHT22;54794;48.348;7.878;2022-08-18T04:34:43;21.60;67.30
68011;DHT22;54794;48.348;7.878;2022-08-18T04:37:10;21.60;67.20
68011;DHT22;54794;48.348;7.878;2022-08-18T04:39:37;21.60;67.30
68011;DHT22;54794;48.348;7.878;2022-08-18T04:42:04;21.60;67.30
68011;DHT22;54794;48.348;7.878;2022-08-18T04:44:32;21.60;67.30
68011;DHT22;54794;48.348;7.878;2022-08-18T04:47:00;21.60;67.20
68011;DHT22;54794;48.348;7.878;2022-08-18T04:49:27;21.60;67.30
68011;DHT22;54794;48.348;7.878;2022-08-18T04:51:55;21.60;67.40
68011;DHT22;54794;48.348;7.878;2022-08-18T04:55:01;21.60;67.50
68011;DHT22;54794;48.348;7.878;2022-08-18T04:57:30;21.60;67.50
68011;DHT22;54794;48.348;7.878;2022-08-18T05:00:00;21.60;67.50
68011;DHT22;54794;48.348;7.878;2022-08-18T05:02:29;21.60;67.60
68011;DHT22;54794;48.348;7.878;2022-08-18T05:04:58;21.60;67.60
68011;DHT22;54794;48.348;7.878;2022-08-18T05:07:28;21.60;67.60
68011;DHT22;54794;48.348;7.878;2022-08-18T05:09:55;21.60;67.60
68011;DHT22;54794;48.348;7.878;2022-08-18T05:12:22;21.70;67.50
68011;DHT22;54794;48.348;7.878;2022-08-18T05:14:52;21.60;67.20
68011;DHT22;54794;48.348;7.878;2022-08-18T05:17:23;21.60;67.40
68011;DHT22;54794;48.348;7.878;2022-08-18T05:19:56;21.60;67.50
68011;DHT22;54794;48.348;7.878;2022-08-18T05:22:26;21.60;67.40
68011;DHT22;54794;48.348;7.878;2022-08-18T05:24:56;21.60;67.60
68011;DHT22;54794;48.348;7.878;2022-08-18T05:27:23;21.60;67.80
68011;DHT22;54794;48.348;7.878;2022-08-18T05:29:50;21.60;67.90
68011;DHT22;54794;48.348;7.878;2022-08-18T05:32:17;21.60;67.90
68011;DHT22;54794;48.348;7.878;2022-08-18T05:35:35;21.60;68.00
68011;DHT22;54794;48.348;7.878;2022-08-18T05:40:42;21.60;68.00
68011;DHT22;54794;48.348;7.878;2022-08-18T05:43:12;21.70;68.10
68011;DHT22;54794;48.348;7.878;2022-08-18T05:45:41;21.70;68.20
68011;DHT22;54794;48.348;7.878;2022-08-18T05:48:09;21.70;68.30
68011;DHT22;54794;48.348;7.878;2022-08-18T05:50:36;21.80;68.10
68011;DHT22;54794;48.348;7.878;2022-08-18T05:53:11;21.80;67.90
68011;DHT22;54794;48.348;7.878;2022-08-18T05:55:59;21.80;68.10
68011;DHT22;54794;48.348;7.878;2022-08-18T05:58:52;21.90;68.60
68011;DHT22;54794;48.348;7.878;2022-08-18T06:01:28;21.90;68.10
68011;DHT22;54794;48.348;7.878;2022-08-18T06:06:57;22.00;68.00
68011;DHT22;54794;48.348;7.878;2022-08-18T06:09:56;22.00;68.00
68011;DHT22;54794;48.348;7.878;2022-08-18T06:12:38;22.10;68.20
68011;DHT22;54794;48.348;7.878;2022-08-18T06:15:41;22.20;68.20
68011;DHT22;54794;48.348;7.878;2022-08-18T06:30:22;22.20;68.10
68011;DHT22;54794;48.348;7.878;2022-08-18T06:37:15;22.20;68.20
68011;DHT22;54794;48.348;7.878;2022-08-18T06:39:25;22.20;68.20
68011;DHT22;54794;48.348;7.878;2022-08-18T06:42:00;22.20;67.90
68011;DHT22;54794;48.348;7.878;2022-08-18T06:44:47;22.20;67.80
68011;DHT22;54794;48.348;7.878;2022-08-18T06:50:27;22.10;68.20
68011;DHT22;54794;48.348;7.878;2022-08-18T06:53:07;22.10;68.40
68011;DHT22;54794;48.348;7.878;2022-08-18T06:55:52;22.10;68.40
68011;DHT22;54794;48.348;7.878;2022-08-18T06:58:29;22.10;68.10
68011;DHT22;54794;48.348;7.878;2022-08-18T07:01:03;22.10;68.70
68011;DHT22;54794;48.348;7.878;2022-08-18T07:09:16;22.10;68.80
68011;DHT22;54794;48.348;7.878;2022-08-18T07:12:07;22.10;68.60
68011;DHT22;54794;48.348;7.878;2022-08-18T07:14:48;22.10;68.80
68011;DHT22;54794;48.348;7.878;2022-08-18T07:17:31;22.10;68.90
68011;DHT22;54794;48.348;7.878;2022-08-18T07:20:22;22.10;68.80
68011;DHT22;54794;48.348;7.878;2022-08-18T07:23:00;22.10;69.00
68011;DHT22;54794;48.348;7.878;2022-08-18T07:25:41;22.20;69.20
68011;DHT22;54794;48.348;7.878;2022-08-18T07:28:36;22.20;69.50
68011;DHT22;54794;48.348;7.878;2022-08-18T07:33:50;22.30;69.30
68011;DHT22;54794;48.348;7.878;2022-08-18T07:36:23;22.30;69.20
68011;DHT22;54794;48.348;7.878;2022-08-18T07:39:05;22.30;68.90
68011;DHT22;54794;48.348;7.878;2022-08-18T07:41:47;22.30;69.10
68011;DHT22;54794;48.348;7.878;2022-08-18T07:44:19;22.40;69.10
68011;DHT22;54794;48.348;7.878;2022-08-18T07:49:34;22.50;68.90
68011;DHT22;54794;48.348;7.878;2022-08-18T07:52:05;22.50;68.80
68011;DHT22;54794;48.348;7.878;2022-08-18T07:55:06;22.50;68.80
68011;DHT22;54794;48.348;7.878;2022-08-18T08:09:28;22.60;69.00
68011;DHT22;54794;48.348;7.878;2022-08-18T08:12:35;22.60;68.80
68011;DHT22;54794;48.348;7.878;2022-08-18T08:15:40;22.60;68.80
68011;DHT22;54794;48.348;7.878;2022-08-18T08:21:06;22.70;68.30
68011;DHT22;54794;48.348;7.878;2022-08-18T08:26:33;22.80;68.50
68011;DHT22;54794;48.348;7.878;2022-08-18T08:34:40;23.00;68.30
68011;DHT22;54794;48.348;7.878;2022-08-18T08:37:29;23.00;68.10
68011;DHT22;54794;48.348;7.878;2022-08-18T08:40:12;23.10;68.60
68011;DHT22;54794;48.348;7.878;2022-08-18T08:42:46;23.20;68.20
68011;DHT22;54794;48.348;7.878;2022-08-18T08:45:29;23.10;68.00
68011;DHT22;54794;48.348;7.878;2022-08-18T08:50:48;23.20;67.60
68011;DHT22;54794;48.348;7.878;2022-08-18T08:53:25;23.20;67.40
68011;DHT22;54794;48.348;7.878;2022-08-18T08:56:00;23.20;67.10
68011;DHT22;54794;48.348;7.878;2022-08-18T08:58:56;23.20;66.90
68011;DHT22;54794;48.348;7.878;2022-08-18T09:24:56;23.10;67.00
68011;DHT22;54794;48.348;7.878;2022-08-18T09:27:43;23.10;67.10
68011;DHT22;54794;48.348;7.878;2022-08-18T09:39:28;23.10;67.40
68011;DHT22;54794;48.348;7.878;2022-08-18T09:44:59;23.20;67.80
68011;DHT22;54794;48.348;7.878;2022-08-18T09:52:55;23.20;67.60
68011;DHT22;54794;48.348;7.878;2022-08-18T09:58:26;23.30;67.60
68011;DHT22;54794;48.348;7.878;2022-08-18T10:06:48;23.40;67.10
68011;DHT22;54794;48.348;7.878;2022-08-18T10:09:48;23.40;67.20
68011;DHT22;54794;48.348;7.878;2022-08-18T10:25:08;23.70;68.10
68011;DHT22;54794;48.348;7.878;2022-08-18T10:27:52;23.70;67.60
68011;DHT22;54794;48.348;7.878;2022-08-18T10:37:36;24.00;67.80
68011;DHT22;54794;48.348;7.878;2022-08-18T10:40:22;24.10;68.40
68011;DHT22;54794;48.348;7.878;2022-08-18T10:43:09;24.30;68.00
68011;DHT22;54794;48.348;7.878;2022-08-18T10:46:04;24.50;67.90
68011;DHT22;54794;48.348;7.878;2022-08-18T10:49:16;24.60;67.40
68011;DHT22;54794;48.348;7.878;2022-08-18T10:55:23;24.90;67.30
68011;DHT22;54794;48.348;7.878;2022-08-18T10:58:33;25.00;66.40
68011;DHT22;54794;48.348;7.878;2022-08-18T11:01:15;25.10;66.00
68011;DHT22;54794;48.348;7.878;2022-08-18T11:04:20;25.20;66.10
68011;DHT22;54794;48.348;7.878;2022-08-18T11:07:11;25.30;65.30
68011;DHT22;54794;48.348;7.878;2022-08-18T11:09:46;25.30;65.80
68011;DHT22;54794;48.348;7.878;2022-08-18T11:12:43;25.30;65.50
68011;DHT22;54794;48.348;7.878;2022-08-18T11:15:21;25.30;65.50
68011;DHT22;54794;48.348;7.878;2022-08-18T11:18:10;25.40;65.10
68011;DHT22;54794;48.348;7.878;2022-08-18T11:20:45;25.40;64.90
68011;DHT22;54794;48.348;7.878;2022-08-18T11:23:15;25.40;64.80
68011;DHT22;54794;48.348;7.878;2022-08-18T11:25:44;25.40;64.70
68011;DHT22;54794;48.348;7.878;2022-08-18T11:28:21;25.40;64.90
68011;DHT22;54794;48.348;7.878;2022-08-18T11:30:56;25.40;65.30
68011;DHT22;54794;48.348;7.878;2022-08-18T11:33:25;25.40;65.20
68011;DHT22;54794;48.348;7.878;2022-08-18T11:35:57;25.40;65.10
68011;DHT22;54794;48.348;7.878;2022-08-18T11:38:27;25.40;64.90
68011;DHT22;54794;48.348;7.878;2022-08-18T11:41:17;25.50;65.00
68011;DHT22;54794;48.348;7.878;2022-08-18T11:43:46;25.50;64.60
68011;DHT22;54794;48.348;7.878;2022-08-18T11:48:55;25.50;65.00
68011;DHT22;54794;48.348;7.878;2022-08-18T11:51:29;25.50;64.80
68011;DHT22;54794;48.348;7.878;2022-08-18T11:54:21;25.60;64.50
68011;DHT22;54794;48.348;7.878;2022-08-18T11:57:38;25.60;64.40
68011;DHT22;54794;48.348;7.878;2022-08-18T12:00:40;25.60;64.10
68011;DHT22;54794;48.348;7.878;2022-08-18T12:03:26;25.60;63.90
68011;DHT22;54794;48.348;7.878;2022-08-18T12:09:18;25.60;64.10
68011;DHT22;54794;48.348;7.878;2022-08-18T12:15:05;25.70;63.90
68011;DHT22;54794;48.348;7.878;2022-08-18T12:18:10;25.70;64.00
68011;DHT22;54794;48.348;7.878;2022-08-18T12:20:55;25.70;63.90
68011;DHT22;54794;48.348;7.878;2022-08-18T12:23:24;25.80;63.90
68011;DHT22;54794;48.348;7.878;2022-08-18T12:25:51;25.80;63.80
68011;DHT22;54794;48.348;7.878;2022-08-18T12:28:19;25.80;63.90
68011;DHT22;54794;48.348;7.878;2022-08-18T12:30:48;25.90;63.90
68011;DHT22;54794;48.348;7.878;2022-08-18T12:33:35;25.90;64.00
68011;DHT22;54794;48.348;7.878;2022-08-18T12:36:22;25.90;63.70
68011;DHT22;54794;48.348;7.878;2022-08-18T12:38:54;26.00;63.70
68011;DHT22;54794;48.348;7.878;2022-08-18T12:41:23;26.10;63.70
68011;DHT22;54794;48.348;7.878;2022-08-18T12:43:50;26.10;63.70
68011;DHT22;54794;48.348;7.878;2022-08-18T12:46:39;26.20;63.90
68011;DHT22;54794;48.348;7.878;2022-08-18T12:49:35;26.30;64.00
68011;DHT22;54794;48.348;7.878;2022-08-18T12:52:03;26.40;64.00
68011;DHT22;54794;48.348;7.878;2022-08-18T12:54:32;26.50;64.20
68011;DHT22;54794;48.348;7.878;2022-08-18T12:57:26;26.60;63.50
68011;DHT22;54794;48.348;7.878;2022-08-18T13:00:14;26.70;63.00
68011;DHT22;54794;48.348;7.878;2022-08-18T13:02:44;26.70;62.90
68011;DHT22;54794;48.348;7.878;2022-08-18T13:05:11;26.70;62.50
68011;DHT22;54794;48.348;7.878;2022-08-18T13:07:38;26.80;62.50
68011;DHT22;54794;48.348;7.878;2022-08-18T13:10:05;26.80;62.50
68011;DHT22;54794;48.348;7.878;2022-08-18T13:12:47;26.80;62.90
68011;DHT22;54794;48.348;7.878;2022-08-18T13:15:15;26.80;62.90
68011;DHT22;54794;48.348;7.878;2022-08-18T13:17:45;26.90;62.80
68011;DHT22;54794;48.348;7.878;2022-08-18T13:20:16;26.90;62.60
68011;DHT22;54794;48.348;7.878;2022-08-18T13:22:43;27.00;62.30
68011;DHT22;54794;48.348;7.878;2022-08-18T13:25:13;27.00;62.30
68011;DHT22;54794;48.348;7.878;2022-08-18T13:27:58;27.10;62.30
68011;DHT22;54794;48.348;7.878;2022-08-18T13:30:27;27.10;62.40
68011;DHT22;54794;48.348;7.878;2022-08-18T13:33:01;27.20;62.10
68011;DHT22;54794;48.348;7.878;2022-08-18T13:35:51;27.20;61.50
68011;DHT22;54794;48.348;7.878;2022-08-18T13:38:21;27.30;61.80
68011;DHT22;54794;48.348;7.878;2022-08-18T13:40:56;27.40;61.60
68011;DHT22;54794;48.348;7.878;2022-08-18T13:43:31;27.40;61.20
68011;DHT22;54794;48.348;7.878;2022-08-18T13:46:04;27.40;61.00
68011;DHT22;54794;48.348;7.878;2022-08-18T13:48:32;27.50;61.50
68011;DHT22;54794;48.348;7.878;2022-08-18T13:51:00;27.60;61.60
68011;DHT22;54794;48.348;7.878;2022-08-18T13:53:29;27.60;61.30
68011;DHT22;54794;48.348;7.878;2022-08-18T13:55:57;27.60;61.40
68011;DHT22;54794;48.348;7.878;2022-08-18T13:58:28;27.70;61.70
68011;DHT22;54794;48.348;7.878;2022-08-18T14:00:58;27.80;62.10
68011;DHT22;54794;48.348;7.878;2022-08-18T14:03:47;27.80;60.90
68011;DHT22;54794;48.348;7.878;2022-08-18T14:06:16;27.90;60.90
68011;DHT22;54794;48.348;7.878;2022-08-18T14:08:51;27.90;60.80
68011;DHT22;54794;48.348;7.878;2022-08-18T14:11:23;27.90;60.60
68011;DHT22;54794;48.348;7.878;2022-08-18T14:13:58;27.90;60.50
68011;DHT22;54794;48.348;7.878;2022-08-18T14:16:27;28.00;60.50
68011;DHT22;54794;48.348;7.878;2022-08-18T14:18:56;28.00;60.20
68011;DHT22;54794;48.348;7.878;2022-08-18T14:21:46;28.00;60.20
68011;DHT22;54794;48.348;7.878;2022-08-18T14:24:38;28.00;59.80
68011;DHT22;54794;48.348;7.878;2022-08-18T14:27:27;28.00;59.70
68011;DHT22;54794;48.348;7.878;2022-08-18T14:30:09;28.00;60.10
68011;DHT22;54794;48.348;7.878;2022-08-18T14:32:40;27.90;59.60
68011;DHT22;54794;48.348;7.878;2022-08-18T14:35:15;27.90;59.70
68011;DHT22;54794;48.348;7.878;2022-08-18T14:38:03;27.80;60.00
68011;DHT22;54794;48.348;7.878;2022-08-18T14:40:31;27.80;60.50
68011;DHT22;54794;48.348;7.878;2022-08-18T14:42:59;27.70;59.90
68011;DHT22;54794;48.348;7.878;2022-08-18T14:45:32;27.70;59.70
68011;DHT22;54794;48.348;7.878;2022-08-18T14:48:02;27.60;59.60
68011;DHT22;54794;48.348;7.878;2022-08-18T14:50:34;27.60;59.50
68011;DHT22;54794;48.348;7.878;2022-08-18T14:53:03;27.50;59.30
68011;DHT22;54794;48.348;7.878;2022-08-18T14:55:30;27.50;59.60
68011;DHT22;54794;48.348;7.878;2022-08-18T14:57:59;27.50;60.10
68011;DHT22;54794;48.348;7.878;2022-08-18T15:00:26;27.40;59.90
68011;DHT22;54794;48.348;7.878;2022-08-18T15:02:54;27.40;60.00
68011;DHT22;54794;48.348;7.878;2022-08-18T15:05:26;27.40;60.00
68011;DHT22;54794;48.348;7.878;2022-08-18T15:08:00;27.40;60.00
68011;DHT22;54794;48.348;7.878;2022-08-18T15:10:30;27.30;60.30
68011;DHT22;54794;48.348;7.878;2022-08-18T15:12:58;27.30;60.90
68011;DHT22;54794;48.348;7.878;2022-08-18T15:15:26;27.20;60.10
68011;DHT22;54794;48.348;7.878;2022-08-18T15:18:13;27.20;60.10
68011;DHT22;54794;48.348;7.878;2022-08-18T15:20:49;27.20;60.40
68011;DHT22;54794;48.348;7.878;2022-08-18T15:23:45;27.10;60.20
68011;DHT22;54794;48.348;7.878;2022-08-18T15:26:40;27.10;60.50
68011;DHT22;54794;48.348;7.878;2022-08-18T15:29:10;27.00;60.40
68011;DHT22;54794;48.348;7.878;2022-08-18T15:31:40;27.00;60.60
68011;DHT22;54794;48.348;7.878;2022-08-18T15:34:16;27.00;60.40
68011;DHT22;54794;48.348;7.878;2022-08-18T15:36:46;27.00;60.30
68011;DHT22;54794;48.348;7.878;2022-08-18T15:39:15;26.90;60.60
68011;DHT22;54794;48.348;7.878;2022-08-18T15:41:44;26.90;60.40
68011;DHT22;54794;48.348;7.878;2022-08-18T15:44:20;26.90;61.30
68011;DHT22;54794;48.348;7.878;2022-08-18T15:46:47;26.90;61.50
68011;DHT22;54794;48.348;7.878;2022-08-18T15:49:20;26.90;61.10
68011;DHT22;54794;48.348;7.878;2022-08-18T15:51:49;26.90;61.00
68011;DHT22;54794;48.348;7.878;2022-08-18T15:54:18;26.90;60.60
68011;DHT22;54794;48.348;7.878;2022-08-18T15:56:46;26.80;60.50
68011;DHT22;54794;48.348;7.878;2022-08-18T15:59:25;26.80;61.10
68011;DHT22;54794;48.348;7.878;2022-08-18T16:02:05;26.80;61.00
68011;DHT22;54794;48.348;7.878;2022-08-18T16:04:38;26.80;60.70
68011;DHT22;54794;48.348;7.878;2022-08-18T16:07:08;26.90;61.20
68011;DHT22;54794;48.348;7.878;2022-08-18T16:09:35;26.90;61.00
68011;DHT22;54794;48.348;7.878;2022-08-18T16:12:02;26.80;61.00
68011;DHT22;54794;48.348;7.878;2022-08-18T16:14:29;26.90;61.00
68011;DHT22;54794;48.348;7.878;2022-08-18T16:16:57;26.90;60.90
68011;DHT22;54794;48.348;7.878;2022-08-18T16:19:25;26.90;60.90
68011;DHT22;54794;48.348;7.878;2022-08-18T16:21:57;26.80;60.80
68011;DHT22;54794;48.348;7.878;2022-08-18T16:24:23;26.90;61.10
68011;DHT22;54794;48.348;7.878;2022-08-18T16:26:51;26.80;61.10
68011;DHT22;54794;48.348;7.878;2022-08-18T16:29:18;26.80;61.00
68011;DHT22;54794;48.348;7.878;2022-08-18T16:31:45;26.80;60.80
68011;DHT22;54794;48.348;7.878;2022-08-18T16:34:12;26.80;60.60
68011;DHT22;54794;48.348;7.878;2022-08-18T16:36:39;26.80;60.60
68011;DHT22;54794;48.348;7.878;2022-08-18T16:39:06;26.80;60.70
68011;DHT22;54794;48.348;7.878;2022-08-18T16:41:34;26.70;60.60
68011;DHT22;54794;48.348;7.878;2022-08-18T16:44:01;26.70;60.90
68011;DHT22;54794;48.348;7.878;2022-08-18T16:46:28;26.70;61.20
68011;DHT22;54794;48.348;7.878;2022-08-18T16:48:57;26.70;61.10
68011;DHT22;54794;48.348;7.878;2022-08-18T16:51:26;26.70;61.20
68011;DHT22;54794;48.348;7.878;2022-08-18T16:53:54;26.70;61.00
68011;DHT22;54794;48.348;7.878;2022-08-18T16:56:25;26.70;61.00
68011;DHT22;54794;48.348;7.878;2022-08-18T16:58:54;26.60;60.70
68011;DHT22;54794;48.348;7.878;2022-08-18T17:01:41;26.60;60.60
68011;DHT22;54794;48.348;7.878;2022-08-18T17:04:29;26.60;60.90
68011;DHT22;54794;48.348;7.878;2022-08-18T17:07:04;26.60;61.20
68011;DHT22;54794;48.348;7.878;2022-08-18T17:09:33;26.60;61.20
68011;DHT22;54794;48.348;7.878;2022-08-18T17:12:01;26.60;61.10
68011;DHT22;54794;48.348;7.878;2022-08-18T17:14:30;26.60;61.10
68011;DHT22;54794;48.348;7.878;2022-08-18T17:16:58;26.50;61.20
68011;DHT22;54794;48.348;7.878;2022-08-18T17:19:29;26.60;61.10
68011;DHT22;54794;48.348;7.878;2022-08-18T17:22:03;26.60;61.30
68011;DHT22;54794;48.348;7.878;2022-08-18T17:24:31;26.60;61.60
68011;DHT22;54794;48.348;7.878;2022-08-18T17:27:18;26.60;61.20
68011;DHT22;54794;48.348;7.878;2022-08-18T17:30:07;26.60;61.20
68011;DHT22;54794;48.348;7.878;2022-08-18T17:33:04;26.60;61.00
68011;DHT22;54794;48.348;7.878;2022-08-18T17:36:06;26.50;61.20
68011;DHT22;54794;48.348;7.878;2022-08-18T17:38:45;26.50;61.20
68011;DHT22;54794;48.348;7.878;2022-08-18T17:41:18;26.50;61.40
68011;DHT22;54794;48.348;7.878;2022-08-18T17:43:47;26.50;61.40
68011;DHT22;54794;48.348;7.878;2022-08-18T17:46:19;26.50;61.80
68011;DHT22;54794;48.348;7.878;2022-08-18T17:49:55;26.40;62.20
68011;DHT22;54794;48.348;7.878;2022-08-18T17:52:57;26.40;62.10
68011;DHT22;54794;48.348;7.878;2022-08-18T17:55:38;26.40;62.10
68011;DHT22;54794;48.348;7.878;2022-08-18T17:58:18;26.40;62.60
68011;DHT22;54794;48.348;7.878;2022-08-18T18:00:51;26.40;62.50
68011;DHT22;54794;48.348;7.878;2022-08-18T18:03:18;26.40;62.30
68011;DHT22;54794;48.348;7.878;2022-08-18T18:11:47;26.30;61.90
68011;DHT22;54794;48.348;7.878;2022-08-18T18:14:27;26.30;62.10
68011;DHT22;54794;48.348;7.878;2022-08-18T18:17:14;26.30;62.80
68011;DHT22;54794;48.348;7.878;2022-08-18T18:19:49;26.30;62.90
68011;DHT22;54794;48.348;7.878;2022-08-18T18:22:26;26.20;62.60
68011;DHT22;54794;48.348;7.878;2022-08-18T18:24:59;26.20;63.10
68011;DHT22;54794;48.348;7.878;2022-08-18T18:27:42;26.20;62.90
68011;DHT22;54794;48.348;7.878;2022-08-18T18:33:02;26.20;63.10
68011;DHT22;54794;48.348;7.878;2022-08-18T18:35:51;26.10;63.40
68011;DHT22;54794;48.348;7.878;2022-08-18T18:38:34;26.10;63.60
68011;DHT22;54794;48.348;7.878;2022-08-18T18:43:42;26.10;63.80
68011;DHT22;54794;48.348;7.878;2022-08-18T18:55:15;25.90;64.20
68011;DHT22;54794;48.348;7.878;2022-08-18T18:58:22;25.90;64.10
68011;DHT22;54794;48.348;7.878;2022-08-18T19:00:59;25.80;63.90
68011;DHT22;54794;48.348;7.878;2022-08-18T19:03:38;25.80;63.70
68011;DHT22;54794;48.348;7.878;2022-08-18T19:11:53;25.60;63.80
68011;DHT22;54794;48.348;7.878;2022-08-18T19:14:31;25.60;64.00
68011;DHT22;54794;48.348;7.878;2022-08-18T19:17:08;25.60;64.00